sensor_id;sensor_type;location;lat;lon;timestamp;pressure;altitude;pressure_sealevel;temperature;humidity
64189;BME280;50493;50.970;10.082;2023-05-24T00:00:09;99758.09;;;11.33;53.55
64189;BME280;50493;50.970;10.082;2023-05-24T00:02:37;99757.16;;;11.34;53.52
64189;BME280;50493;50.970;10.082;2023-05-24T00:05:06;99758.97;;;11.32;53.54
64189;BME280;50493;50.970;10.082;2023-05-24T00:07:33;99762.63;;;11.22;53.65
64189;BME280;50493;50.970;10.082;2023-05-24T00:10:00;99754.81;;;11.20;53.63
64189;BME280;50493;50.970;10.082;2023-05-24T00:12:25;99759.88;;;11.29;53.29
64189;BME280;50493;50.970;10.082;2023-05-24T00:14:51;99764.66;;;11.07;53.87
64189;BME280;50493;50.970;10.082;2023-05-24T00:17:16;99755.63;;;11.24;53.31
64189;BME280;50493;50.970;10.082;2023-05-24T00:19:41;99755.16;;;11.00;54.04
64189;BME280;50493;50.970;10.082;2023-05-24T00:22:07;99751.53;;;11.09;53.53
64189;BME280;50493;50.970;10.082;2023-05-24T00:24:32;99753.19;;;11.14;53.41
64189;BME280;50493;50.970;10.082;2023-05-24T00:26:59;99760.13;;;11.17;53.21
64189;BME280;50493;50.970;10.082;2023-05-24T00:29:25;99760.09;;;11.19;53.13
64189;BME280;50493;50.970;10.082;2023-05-24T00:31:50;99761.03;;;11.14;53.15
64189;BME280;50493;50.970;10.082;2023-05-24T00:34:15;99757.69;;;11.06;53.29
64189;BME280;50493;50.970;10.082;2023-05-24T00:36:41;99756.78;;;11.09;53.17
64189;BME280;50493;50.970;10.082;2023-05-24T00:39:06;99759.44;;;11.06;53.40
64189;BME280;50493;50.970;10.082;2023-05-24T00:41:31;99764.91;;;10.92;53.55
64189;BME280;50493;50.970;10.082;2023-05-24T00:43:58;99769.38;;;10.85;53.60
64189;BME280;50493;50.970;10.082;2023-05-24T00:46:26;99766.00;;;10.78;53.85
64189;BME280;50493;50.970;10.082;2023-05-24T00:48:52;99767.75;;;10.78;53.92
64189;BME280;50493;50.970;10.082;2023-05-24T00:51:17;99775.84;;;10.64;53.94
64189;BME280;50493;50.970;10.082;2023-05-24T00:53:44;99766.13;;;10.72;53.68
64189;BME280;50493;50.970;10.082;2023-05-24T00:56:11;99768.66;;;10.75;53.66
64189;BME280;50493;50.970;10.082;2023-05-24T00:58:37;99772.31;;;10.65;53.75
64189;BME280;50493;50.970;10.082;2023-05-24T01:01:04;99765.50;;;10.55;54.30
64189;BME280;50493;50.970;10.082;2023-05-24T01:03:30;99763.84;;;10.51;54.16
64189;BME280;50493;50.970;10.082;2023-05-24T01:05:56;99765.59;;;10.48;54.07
64189;BME280;50493;50.970;10.082;2023-05-24T01:08:36;99772.56;;;10.50;53.98
64189;BME280;50493;50.970;10.082;2023-05-24T01:11:13;99767.38;;;10.46;54.02
64189;BME280;50493;50.970;10.082;2023-05-24T01:13:45;99774.34;;;10.46;53.90
64189;BME280;50493;50.970;10.082;2023-05-24T01:16:16;99779.69;;;10.35;54.13
64189;BME280;50493;50.970;10.082;2023-05-24T01:18:46;99772.56;;;10.50;53.52
64189;BME280;50493;50.970;10.082;2023-05-24T01:21:15;99784.22;;;10.24;54.16
64189;BME280;50493;50.970;10.082;2023-05-24T01:23:46;99782.38;;;10.30;53.90
64189;BME280;50493;50.970;10.082;2023-05-24T01:26:31;99778.38;;;10.06;54.34
64189;BME280;50493;50.970;10.082;2023-05-24T01:29:00;99776.69;;;10.02;54.61
64189;BME280;50493;50.970;10.082;2023-05-24T01:31:26;99778.41;;;10.03;54.49
64189;BME280;50493;50.970;10.082;2023-05-24T01:33:52;99776.63;;;10.05;54.45
64189;BME280;50493;50.970;10.082;2023-05-24T01:36:17;99777.59;;;9.98;53.59
64189;BME280;50493;50.970;10.082;2023-05-24T01:38:43;99781.19;;;9.91;54.75
64189;BME280;50493;50.970;10.082;2023-05-24T01:41:27;99777.66;;;9.95;54.68
64189;BME280;50493;50.970;10.082;2023-05-24T01:44:02;99773.25;;;9.97;54.42
64189;BME280;50493;50.970;10.082;2023-05-24T01:46:34;99773.31;;;9.92;54.42
64189;BME280;50493;50.970;10.082;2023-05-24T01:49:10;99772.41;;;9.93;53.44
64189;BME280;50493;50.970;10.082;2023-05-24T01:51:40;99776.91;;;9.84;54.37
64189;BME280;50493;50.970;10.082;2023-05-24T01:54:08;99771.69;;;9.84;54.42
64189;BME280;50493;50.970;10.082;2023-05-24T01:56:36;99770.84;;;9.82;54.28
64189;BME280;50493;50.970;10.082;2023-05-24T01:59:05;99762.13;;;9.83;54.19
64189;BME280;50493;50.970;10.082;2023-05-24T02:01:31;99759.66;;;9.70;54.59
64189;BME280;50493;50.970;10.082;2023-05-24T02:03:58;99764.84;;;9.75;54.26
64189;BME280;50493;50.970;10.082;2023-05-24T02:06:23;99759.66;;;9.73;54.23
64189;BME280;50493;50.970;10.082;2023-05-24T02:08:48;99759.66;;;9.70;54.26
64189;BME280;50493;50.970;10.082;2023-05-24T02:11:14;99764.16;;;9.59;54.45
64189;BME280;50493;50.970;10.082;2023-05-24T02:13:39;99764.09;;;9.65;54.15
64189;BME280;50493;50.970;10.082;2023-05-24T02:16:06;99757.13;;;9.64;54.08
64189;BME280;50493;50.970;10.082;2023-05-24T02:18:31;99759.75;;;9.61;53.90
64189;BME280;50493;50.970;10.082;2023-05-24T02:20:59;99758.13;;;9.54;54.16
64189;BME280;50493;50.970;10.082;2023-05-24T02:23:24;99751.06;;;9.62;53.69
64189;BME280;50493;50.970;10.082;2023-05-24T02:25:50;99753.75;;;9.56;53.75
64189;BME280;50493;50.970;10.082;2023-05-24T02:28:15;99759.94;;;9.45;54.17
64189;BME280;50493;50.970;10.082;2023-05-24T02:30:40;99751.25;;;9.46;53.91
64189;BME280;50493;50.970;10.082;2023-05-24T02:33:09;99757.34;;;9.45;54.02
64189;BME280;50493;50.970;10.082;2023-05-24T02:35:36;99756.47;;;9.46;53.95
64189;BME280;50493;50.970;10.082;2023-05-24T02:38:01;99754.78;;;9.42;53.81
64189;BME280;50493;50.970;10.082;2023-05-24T02:40:30;99758.22;;;9.44;53.65
64189;BME280;50493;50.970;10.082;2023-05-24T02:42:56;99752.97;;;9.48;53.58
64189;BME280;50493;50.970;10.082;2023-05-24T02:45:21;99745.22;;;9.41;53.70
64189;BME280;50493;50.970;10.082;2023-05-24T02:47:47;99743.53;;;9.37;53.59
64189;BME280;50493;50.970;10.082;2023-05-24T02:50:13;99734.03;;;9.30;53.78
64189;BME280;50493;50.970;10.082;2023-05-24T02:52:39;99741.06;;;9.23;53.75
64189;BME280;50493;50.970;10.082;2023-05-24T02:55:05;99748.00;;;9.26;53.50
64189;BME280;50493;50.970;10.082;2023-05-24T02:57:31;99746.31;;;9.22;53.70
64189;BME280;50493;50.970;10.082;2023-05-24T02:59:58;99747.13;;;9.24;53.56
64189;BME280;50493;50.970;10.082;2023-05-24T03:02:24;99744.63;;;9.15;53.74
64189;BME280;50493;50.970;10.082;2023-05-24T03:04:49;99752.50;;;9.10;53.72
64189;BME280;50493;50.970;10.082;2023-05-24T03:07:16;99757.75;;;9.05;53.99
64189;BME280;50493;50.970;10.082;2023-05-24T03:09:41;99751.66;;;9.06;53.74
64189;BME280;50493;50.970;10.082;2023-05-24T03:12:07;99761.28;;;9.00;53.74
64189;BME280;50493;50.970;10.082;2023-05-24T03:14:32;99759.56;;;9.00;53.67
64189;BME280;50493;50.970;10.082;2023-05-24T03:16:58;99758.72;;;8.95;53.59
64189;BME280;50493;50.970;10.082;2023-05-24T03:19:23;99753.50;;;8.95;53.58
64189;BME280;50493;50.970;10.082;2023-05-24T03:21:48;99748.25;;;8.98;53.42
64189;BME280;50493;50.970;10.082;2023-05-24T03:24:15;99750.00;;;8.93;53.65
64189;BME280;50493;50.970;10.082;2023-05-24T03:26:40;99746.53;;;8.92;53.22
64189;BME280;50493;50.970;10.082;2023-05-24T03:29:06;99751.81;;;8.86;53.38
64189;BME280;50493;50.970;10.082;2023-05-24T03:31:31;99748.38;;;8.83;53.36
64189;BME280;50493;50.970;10.082;2023-05-24T03:33:56;99745.81;;;8.75;53.69
64189;BME280;50493;50.970;10.082;2023-05-24T03:36:22;99755.38;;;8.74;53.75
64189;BME280;50493;50.970;10.082;2023-05-24T03:38:50;99755.38;;;8.77;53.29
64189;BME280;50493;50.970;10.082;2023-05-24T03:41:16;99756.25;;;8.76;53.45
64189;BME280;50493;50.970;10.082;2023-05-24T03:43:42;99763.19;;;8.74;53.36
64189;BME280;50493;50.970;10.082;2023-05-24T03:46:07;99762.31;;;8.80;53.15
64189;BME280;50493;50.970;10.082;2023-05-24T03:48:32;99763.25;;;8.70;53.07
64189;BME280;50493;50.970;10.082;2023-05-24T03:50:58;99762.22;;;8.88;52.78
64189;BME280;50493;50.970;10.082;2023-05-24T03:53:24;99760.50;;;8.88;52.41
64189;BME280;50493;50.970;10.082;2023-05-24T03:55:49;99764.06;;;8.76;52.64
64189;BME280;50493;50.970;10.082;2023-05-24T03:58:16;99765.81;;;8.73;52.86
64189;BME280;50493;50.970;10.082;2023-05-24T04:00:41;99775.34;;;8.75;52.77
64189;BME280;50493;50.970;10.082;2023-05-24T04:03:07;99776.28;;;8.70;52.70
64189;BME280;50493;50.970;10.082;2023-05-24T04:05:33;99775.38;;;8.72;52.56
64189;BME280;50493;50.970;10.082;2023-05-24T04:07:58;99777.97;;;8.75;52.54
64189;BME280;50493;50.970;10.082;2023-05-24T04:10:23;99780.47;;;8.89;52.04
64189;BME280;50493;50.970;10.082;2023-05-24T04:12:49;99780.41;;;9.00;51.79
64189;BME280;50493;50.970;10.082;2023-05-24T04:15:16;99784.16;;;9.57;49.94
64189;BME280;50493;50.970;10.082;2023-05-24T04:17:42;99785.16;;;10.20;48.01
64189;BME280;50493;50.970;10.082;2023-05-24T04:20:08;99770.00;;;10.46;47.22
64189;BME280;50493;50.970;10.082;2023-05-24T04:22:34;99774.16;;;10.60;46.67
64189;BME280;50493;50.970;10.082;2023-05-24T04:25:00;99775.78;;;10.67;46.48
64189;BME280;50493;50.970;10.082;2023-05-24T04:27:25;99780.66;;;10.29;47.30
64189;BME280;50493;50.970;10.082;2023-05-24T04:29:51;99785.63;;;9.84;48.42
64189;BME280;50493;50.970;10.082;2023-05-24T04:32:18;99788.59;;;9.50;49.25
64189;BME280;50493;50.970;10.082;2023-05-24T04:34:44;99790.44;;;9.43;49.37
64189;BME280;50493;50.970;10.082;2023-05-24T04:37:10;99786.88;;;9.51;49.42
64189;BME280;50493;50.970;10.082;2023-05-24T04:39:35;99790.28;;;9.56;48.96
64189;BME280;50493;50.970;10.082;2023-05-24T04:42:01;99785.94;;;9.55;49.12
64189;BME280;50493;50.970;10.082;2023-05-24T04:44:26;99785.84;;;9.66;48.80
64189;BME280;50493;50.970;10.082;2023-05-24T04:46:52;99799.91;;;9.51;49.05
64189;BME280;50493;50.970;10.082;2023-05-24T04:49:18;99799.03;;;9.50;49.03
64189;BME280;50493;50.970;10.082;2023-05-24T04:51:44;99799.78;;;9.63;48.74
64189;BME280;50493;50.970;10.082;2023-05-24T04:54:10;99797.84;;;9.80;48.30
64189;BME280;50493;50.970;10.082;2023-05-24T04:56:35;99799.16;;;10.16;47.24
64189;BME280;50493;50.970;10.082;2023-05-24T04:59:02;99799.03;;;10.22;46.97
64189;BME280;50493;50.970;10.082;2023-05-24T05:01:28;99792.75;;;10.35;46.75
64189;BME280;50493;50.970;10.082;2023-05-24T05:03:54;99794.56;;;10.31;46.36
64189;BME280;50493;50.970;10.082;2023-05-24T05:06:20;99804.81;;;10.48;46.23
64189;BME280;50493;50.970;10.082;2023-05-24T05:08:46;99796.41;;;10.84;46.90
64189;BME280;50493;50.970;10.082;2023-05-24T05:11:12;99800.69;;;11.41;45.78
64189;BME280;50493;50.970;10.082;2023-05-24T05:13:38;99809.38;;;9.62;51.00
64189;BME280;50493;50.970;10.082;2023-05-24T05:16:04;99804.13;;;9.64;52.38
64189;BME280;50493;50.970;10.082;2023-05-24T05:18:29;99805.66;;;10.51;47.59
64189;BME280;50493;50.970;10.082;2023-05-24T05:20:54;99802.22;;;10.47;50.20
64189;BME280;50493;50.970;10.082;2023-05-24T05:23:21;99806.22;;;10.04;51.45
64189;BME280;50493;50.970;10.082;2023-05-24T05:25:47;99797.91;;;10.43;50.20
64189;BME280;50493;50.970;10.082;2023-05-24T05:28:12;99810.44;;;9.41;53.99
64189;BME280;50493;50.970;10.082;2023-05-24T05:30:37;99805.03;;;10.31;47.68
64189;BME280;50493;50.970;10.082;2023-05-24T05:33:03;99802.81;;;11.21;48.39
64189;BME280;50493;50.970;10.082;2023-05-24T05:35:30;99821.53;;;8.58;56.22
64189;BME280;50493;50.970;10.082;2023-05-24T05:37:55;99812.84;;;8.59;56.69
64189;BME280;50493;50.970;10.082;2023-05-24T05:40:21;99811.34;;;8.21;59.91
64189;BME280;50493;50.970;10.082;2023-05-24T05:42:47;99807.25;;;9.11;51.39
64189;BME280;50493;50.970;10.082;2023-05-24T05:45:13;99798.13;;;9.56;53.09
64189;BME280;50493;50.970;10.082;2023-05-24T05:47:38;99794.75;;;9.44;55.61
64189;BME280;50493;50.970;10.082;2023-05-24T05:50:05;99805.34;;;9.29;56.17
64189;BME280;50493;50.970;10.082;2023-05-24T05:52:31;99808.72;;;9.40;56.26
64189;BME280;50493;50.970;10.082;2023-05-24T05:54:56;99805.78;;;8.73;58.28
64189;BME280;50493;50.970;10.082;2023-05-24T05:57:24;99811.03;;;8.67;57.48
64189;BME280;50493;50.970;10.082;2023-05-24T05:59:50;99806.13;;;8.21;60.40
64189;BME280;50493;50.970;10.082;2023-05-24T06:02:15;99812.53;;;9.02;60.00
64189;BME280;50493;50.970;10.082;2023-05-24T06:04:42;99810.94;;;8.79;59.25
64189;BME280;50493;50.970;10.082;2023-05-24T06:07:08;99814.03;;;9.29;58.91
64189;BME280;50493;50.970;10.082;2023-05-24T06:09:33;99808.47;;;9.65;52.24
64189;BME280;50493;50.970;10.082;2023-05-24T06:11:58;99808.88;;;10.03;49.20
64189;BME280;50493;50.970;10.082;2023-05-24T06:14:25;99808.19;;;9.90;49.07
64189;BME280;50493;50.970;10.082;2023-05-24T06:16:51;99798.28;;;10.77;49.63
64189;BME280;50493;50.970;10.082;2023-05-24T06:19:18;99807.03;;;10.73;48.14
64189;BME280;50493;50.970;10.082;2023-05-24T06:21:45;99807.00;;;10.14;52.34
64189;BME280;50493;50.970;10.082;2023-05-24T06:24:12;99823.06;;;8.84;57.49
64189;BME280;50493;50.970;10.082;2023-05-24T06:26:38;99826.31;;;9.20;55.22
64189;BME280;50493;50.970;10.082;2023-05-24T06:29:04;99825.84;;;9.64;53.19
64189;BME280;50493;50.970;10.082;2023-05-24T06:31:30;99822.84;;;9.98;49.06
64189;BME280;50493;50.970;10.082;2023-05-24T06:33:57;99824.91;;;10.43;47.82
64189;BME280;50493;50.970;10.082;2023-05-24T06:36:22;99823.66;;;10.69;47.33
64189;BME280;50493;50.970;10.082;2023-05-24T06:38:47;99820.53;;;11.52;47.36
64189;BME280;50493;50.970;10.082;2023-05-24T06:41:13;99833.31;;;11.20;45.48
64189;BME280;50493;50.970;10.082;2023-05-24T06:43:38;99837.59;;;10.71;46.73
64189;BME280;50493;50.970;10.082;2023-05-24T06:46:04;99843.69;;;10.70;46.74
64189;BME280;50493;50.970;10.082;2023-05-24T06:48:31;99832.13;;;10.85;47.48
64189;BME280;50493;50.970;10.082;2023-05-24T06:50:56;99841.41;;;11.06;46.08
64189;BME280;50493;50.970;10.082;2023-05-24T06:53:21;99848.75;;;11.37;48.67
64189;BME280;50493;50.970;10.082;2023-05-24T06:55:47;99850.00;;;12.11;44.53
64189;BME280;50493;50.970;10.082;2023-05-24T06:58:12;99848.41;;;11.04;45.82
64189;BME280;50493;50.970;10.082;2023-05-24T07:00:39;99848.38;;;11.06;45.94
64189;BME280;50493;50.970;10.082;2023-05-24T07:03:04;99851.22;;;11.43;45.04
64189;BME280;50493;50.970;10.082;2023-05-24T07:05:31;99852.28;;;10.78;48.13
64189;BME280;50493;50.970;10.082;2023-05-24T07:07:56;99853.88;;;10.89;46.25
64189;BME280;50493;50.970;10.082;2023-05-24T07:10:22;99849.47;;;10.91;46.42
64189;BME280;50493;50.970;10.082;2023-05-24T07:12:47;99845.56;;;11.20;46.59
64189;BME280;50493;50.970;10.082;2023-05-24T07:15:12;99845.97;;;10.93;47.59
64189;BME280;50493;50.970;10.082;2023-05-24T07:17:38;99854.97;;;10.75;46.98
64189;BME280;50493;50.970;10.082;2023-05-24T07:20:04;99850.78;;;10.62;47.91
64189;BME280;50493;50.970;10.082;2023-05-24T07:22:35;99851.25;;;10.90;46.97
64189;BME280;50493;50.970;10.082;2023-05-24T07:25:01;99863.13;;;10.54;47.91
64189;BME280;50493;50.970;10.082;2023-05-24T07:27:26;99853.97;;;10.82;47.30
64189;BME280;50493;50.970;10.082;2023-05-24T07:29:52;99855.41;;;10.44;48.52
64189;BME280;50493;50.970;10.082;2023-05-24T07:32:18;99866.09;;;10.90;47.11
64189;BME280;50493;50.970;10.082;2023-05-24T07:34:43;99868.50;;;10.41;48.39
64189;BME280;50493;50.970;10.082;2023-05-24T07:37:09;99874.72;;;10.29;49.02
64189;BME280;50493;50.970;10.082;2023-05-24T07:39:35;99879.22;;;10.18;49.35
64189;BME280;50493;50.970;10.082;2023-05-24T07:42:02;99870.34;;;10.30;48.98
64189;BME280;50493;50.970;10.082;2023-05-24T07:44:28;99868.66;;;10.29;49.47
64189;BME280;50493;50.970;10.082;2023-05-24T07:46:53;99867.13;;;10.78;47.95
64189;BME280;50493;50.970;10.082;2023-05-24T07:49:19;99869.19;;;10.56;49.19
64189;BME280;50493;50.970;10.082;2023-05-24T07:51:45;99868.78;;;10.84;47.90
64189;BME280;50493;50.970;10.082;2023-05-24T07:54:10;99866.31;;;10.74;48.17
64189;BME280;50493;50.970;10.082;2023-05-24T07:56:37;99867.97;;;10.78;48.08
64189;BME280;50493;50.970;10.082;2023-05-24T07:59:02;99858.34;;;10.82;48.07
64189;BME280;50493;50.970;10.082;2023-05-24T08:01:29;99856.81;;;11.25;47.83
64189;BME280;50493;50.970;10.082;2023-05-24T08:03:55;99853.63;;;11.56;46.20
64189;BME280;50493;50.970;10.082;2023-05-24T08:06:20;99850.63;;;11.79;46.32
64189;BME280;50493;50.970;10.082;2023-05-24T08:08:45;99850.34;;;12.74;45.60
64189;BME280;50493;50.970;10.082;2023-05-24T08:11:11;99844.59;;;12.18;46.49
64189;BME280;50493;50.970;10.082;2023-05-24T08:13:38;99838.28;;;13.72;41.88
64189;BME280;50493;50.970;10.082;2023-05-24T08:16:03;99839.03;;;14.97;39.99
64189;BME280;50493;50.970;10.082;2023-05-24T08:18:29;99839.66;;;15.05;39.93
64189;BME280;50493;50.970;10.082;2023-05-24T08:20:54;99847.06;;;14.64;40.49
64189;BME280;50493;50.970;10.082;2023-05-24T08:23:20;99838.69;;;14.79;39.14
64189;BME280;50493;50.970;10.082;2023-05-24T08:25:46;99845.94;;;13.81;42.27
64189;BME280;50493;50.970;10.082;2023-05-24T08:28:11;99846.84;;;12.75;43.04
64189;BME280;50493;50.970;10.082;2023-05-24T08:30:38;99849.06;;;13.63;42.39
64189;BME280;50493;50.970;10.082;2023-05-24T08:33:03;99851.72;;;14.26;40.73
64189;BME280;50493;50.970;10.082;2023-05-24T08:35:29;99846.31;;;14.87;39.44
64189;BME280;50493;50.970;10.082;2023-05-24T08:37:54;99856.53;;;13.78;42.11
64189;BME280;50493;50.970;10.082;2023-05-24T08:40:20;99858.84;;;13.58;42.68
64189;BME280;50493;50.970;10.082;2023-05-24T08:42:48;99863.28;;;13.89;42.32
64189;BME280;50493;50.970;10.082;2023-05-24T08:45:14;99855.47;;;13.53;43.64
64189;BME280;50493;50.970;10.082;2023-05-24T08:47:43;99849.72;;;15.19;40.13
64189;BME280;50493;50.970;10.082;2023-05-24T08:50:09;99847.38;;;15.37;39.49
64189;BME280;50493;50.970;10.082;2023-05-24T08:52:35;99849.75;;;14.62;39.99
64189;BME280;50493;50.970;10.082;2023-05-24T08:55:01;99844.38;;;14.94;39.19
64189;BME280;50493;50.970;10.082;2023-05-24T08:57:30;99838.50;;;15.64;38.04
64189;BME280;50493;50.970;10.082;2023-05-24T08:59:56;99839.22;;;15.95;37.92
64189;BME280;50493;50.970;10.082;2023-05-24T09:02:22;99845.88;;;15.80;38.43
64189;BME280;50493;50.970;10.082;2023-05-24T09:04:51;99833.94;;;14.91;36.97
64189;BME280;50493;50.970;10.082;2023-05-24T09:07:18;99843.69;;;15.15;40.07
64189;BME280;50493;50.970;10.082;2023-05-24T09:09:46;99837.03;;;16.98;35.81
64189;BME280;50493;50.970;10.082;2023-05-24T09:12:14;99840.78;;;17.35;34.40
64189;BME280;50493;50.970;10.082;2023-05-24T09:14:44;99830.56;;;18.08;34.93
64189;BME280;50493;50.970;10.082;2023-05-24T09:17:11;99834.94;;;17.89;34.24
64189;BME280;50493;50.970;10.082;2023-05-24T09:19:37;99837.22;;;17.77;34.35
64189;BME280;50493;50.970;10.082;2023-05-24T09:22:05;99834.06;;;17.69;34.63
64189;BME280;50493;50.970;10.082;2023-05-24T09:24:31;99842.75;;;17.30;36.03
64189;BME280;50493;50.970;10.082;2023-05-24T09:27:05;99832.84;;;16.92;34.26
64189;BME280;50493;50.970;10.082;2023-05-24T09:29:34;99835.88;;;15.90;40.00
64189;BME280;50493;50.970;10.082;2023-05-24T09:31:59;99829.38;;;16.68;37.52
64189;BME280;50493;50.970;10.082;2023-05-24T09:34:25;99833.94;;;15.95;37.56
64189;BME280;50493;50.970;10.082;2023-05-24T09:36:51;99835.25;;;15.81;40.28
64189;BME280;50493;50.970;10.082;2023-05-24T09:39:18;99835.19;;;15.07;41.85
64189;BME280;50493;50.970;10.082;2023-05-24T09:41:51;99830.72;;;15.36;40.04
64189;BME280;50493;50.970;10.082;2023-05-24T09:44:23;99832.78;;;15.01;40.93
64189;BME280;50493;50.970;10.082;2023-05-24T09:46:48;99839.84;;;15.26;42.14
64189;BME280;50493;50.970;10.082;2023-05-24T09:49:14;99838.81;;;15.03;42.71
64189;BME280;50493;50.970;10.082;2023-05-24T09:51:39;99838.13;;;14.98;43.89
64189;BME280;50493;50.970;10.082;2023-05-24T09:54:05;99840.06;;;14.91;42.64
64189;BME280;50493;50.970;10.082;2023-05-24T09:56:33;99831.94;;;14.99;43.70
64189;BME280;50493;50.970;10.082;2023-05-24T09:59:04;99835.25;;;14.77;43.59
64189;BME280;50493;50.970;10.082;2023-05-24T10:01:29;99840.19;;;15.15;42.67
64189;BME280;50493;50.970;10.082;2023-05-24T10:03:57;99829.25;;;15.00;43.71
64189;BME280;50493;50.970;10.082;2023-05-24T10:06:24;99828.22;;;16.07;39.51
64189;BME280;50493;50.970;10.082;2023-05-24T10:08:50;99827.50;;;16.26;39.12
64189;BME280;50493;50.970;10.082;2023-05-24T10:11:16;99829.59;;;16.17;38.73
64189;BME280;50493;50.970;10.082;2023-05-24T10:13:42;99835.94;;;16.58;40.28
64189;BME280;50493;50.970;10.082;2023-05-24T10:16:08;99831.84;;;16.73;38.83
64189;BME280;50493;50.970;10.082;2023-05-24T10:18:34;99836.16;;;16.97;37.80
64189;BME280;50493;50.970;10.082;2023-05-24T10:21:00;99834.75;;;16.21;39.96
64189;BME280;50493;50.970;10.082;2023-05-24T10:23:28;99840.22;;;16.14;39.49
64189;BME280;50493;50.970;10.082;2023-05-24T10:25:59;99843.50;;;15.72;41.82
64189;BME280;50493;50.970;10.082;2023-05-24T10:28:28;99838.75;;;15.31;40.03
64189;BME280;50493;50.970;10.082;2023-05-24T10:31:01;99839.63;;;15.32;41.30
64189;BME280;50493;50.970;10.082;2023-05-24T10:33:28;99842.41;;;15.00;41.84
64189;BME280;50493;50.970;10.082;2023-05-24T10:35:55;99838.13;;;14.98;42.13
64189;BME280;50493;50.970;10.082;2023-05-24T10:38:21;99836.06;;;15.33;41.21
64189;BME280;50493;50.970;10.082;2023-05-24T10:40:47;99838.56;;;15.63;40.87
64189;BME280;50493;50.970;10.082;2023-05-24T10:43:13;99837.72;;;16.79;37.65
64189;BME280;50493;50.970;10.082;2023-05-24T10:45:40;99839.19;;;16.64;39.08
64189;BME280;50493;50.970;10.082;2023-05-24T10:48:36;99835.13;;;17.22;37.98
64189;BME280;50493;50.970;10.082;2023-05-24T10:51:30;99832.81;;;17.14;37.73
64189;BME280;50493;50.970;10.082;2023-05-24T10:53:57;99830.84;;;17.19;38.13
64189;BME280;50493;50.970;10.082;2023-05-24T10:56:26;99838.91;;;16.50;40.71
64189;BME280;50493;50.970;10.082;2023-05-24T10:58:58;99830.50;;;16.62;38.89
64189;BME280;50493;50.970;10.082;2023-05-24T11:01:25;99824.53;;;16.11;40.15
64189;BME280;50493;50.970;10.082;2023-05-24T11:03:52;99825.78;;;16.25;40.21
64189;BME280;50493;50.970;10.082;2023-05-24T11:06:44;99836.56;;;16.64;38.96
64189;BME280;50493;50.970;10.082;2023-05-24T11:09:09;99834.81;;;16.65;40.13
64189;BME280;50493;50.970;10.082;2023-05-24T11:11:36;99834.53;;;16.71;39.88
64189;BME280;50493;50.970;10.082;2023-05-24T11:14:02;99835.28;;;16.97;32.22
64189;BME280;50493;50.970;10.082;2023-05-24T11:16:35;99832.44;;;17.44;38.66
64189;BME280;50493;50.970;10.082;2023-05-24T11:19:11;99830.19;;;17.76;36.69
64189;BME280;50493;50.970;10.082;2023-05-24T11:21:38;99825.91;;;17.53;38.44
64189;BME280;50493;50.970;10.082;2023-05-24T11:24:05;99827.75;;;17.30;38.59
64189;BME280;50493;50.970;10.082;2023-05-24T11:26:31;99829.63;;;17.06;39.75
64189;BME280;50493;50.970;10.082;2023-05-24T11:28:56;99823.19;;;17.34;33.31
64189;BME280;50493;50.970;10.082;2023-05-24T11:31:26;99835.53;;;17.33;39.06
64189;BME280;50493;50.970;10.082;2023-05-24T11:33:51;99823.44;;;17.28;36.31
64189;BME280;50493;50.970;10.082;2023-05-24T11:36:19;99812.63;;;17.13;36.00
64189;BME280;50493;50.970;10.082;2023-05-24T11:38:45;99818.19;;;16.85;41.76
64189;BME280;50493;50.970;10.082;2023-05-24T11:41:10;99812.94;;;17.06;40.58
64189;BME280;50493;50.970;10.082;2023-05-24T11:43:36;99815.22;;;16.93;39.55
64189;BME280;50493;50.970;10.082;2023-05-24T11:46:01;99823.72;;;17.22;39.41
64189;BME280;50493;50.970;10.082;2023-05-24T11:48:26;99820.28;;;17.19;39.50
64189;BME280;50493;50.970;10.082;2023-05-24T11:50:53;99818.63;;;17.38;38.59
64189;BME280;50493;50.970;10.082;2023-05-24T11:53:20;99811.41;;;17.62;37.01
64189;BME280;50493;50.970;10.082;2023-05-24T11:55:46;99799.53;;;17.72;32.49
64189;BME280;50493;50.970;10.082;2023-05-24T11:58:18;99799.53;;;17.51;39.10
64189;BME280;50493;50.970;10.082;2023-05-24T12:00:47;99804.91;;;17.50;39.55
64189;BME280;50493;50.970;10.082;2023-05-24T12:03:13;99810.75;;;17.36;40.44
64189;BME280;50493;50.970;10.082;2023-05-24T12:05:38;99806.19;;;17.81;37.99
64189;BME280;50493;50.970;10.082;2023-05-24T12:08:04;99802.06;;;18.13;35.05
64189;BME280;50493;50.970;10.082;2023-05-24T12:10:33;99797.91;;;18.27;30.46
64189;BME280;50493;50.970;10.082;2023-05-24T12:12:58;99798.41;;;18.35;37.82
64189;BME280;50493;50.970;10.082;2023-05-24T12:15:23;99793.19;;;18.89;28.61
64189;BME280;50493;50.970;10.082;2023-05-24T12:17:49;99796.66;;;18.55;28.66
64189;BME280;50493;50.970;10.082;2023-05-24T12:20:16;99804.34;;;16.34;31.60
64189;BME280;50493;50.970;10.082;2023-05-24T12:22:46;99809.41;;;16.84;39.60
64189;BME280;50493;50.970;10.082;2023-05-24T12:25:12;99798.34;;;16.52;32.46
64189;BME280;50493;50.970;10.082;2023-05-24T12:27:43;99801.16;;;16.70;32.46
64189;BME280;50493;50.970;10.082;2023-05-24T12:30:13;99801.53;;;16.83;38.52
64189;BME280;50493;50.970;10.082;2023-05-24T12:32:43;99792.94;;;17.41;32.31
64189;BME280;50493;50.970;10.082;2023-05-24T12:35:09;99791.53;;;17.74;40.51
64189;BME280;50493;50.970;10.082;2023-05-24T12:37:35;99792.94;;;17.82;40.33
64189;BME280;50493;50.970;10.082;2023-05-24T12:40:00;99791.47;;;18.51;38.17
64189;BME280;50493;50.970;10.082;2023-05-24T12:42:29;99781.84;;;19.22;33.56
64189;BME280;50493;50.970;10.082;2023-05-24T12:44:55;99785.91;;;18.19;28.83
64189;BME280;50493;50.970;10.082;2023-05-24T12:47:21;99801.22;;;15.75;33.74
64189;BME280;50493;50.970;10.082;2023-05-24T12:49:46;99799.81;;;16.82;43.09